Time;durP1;ratioP1;P1;durP2;ratioP2;P2;SDS_P1;SDS_P2;PMS_P1;PMS_P2;Temp;Humidity;BMP_temperature;BMP_pressure;BME280_temperature;BME280_humidity;BME280_pressure;Samples;Min_cycle;Max_cycle;Signal;HPM_P1;HPM_P2
2021/12/08 00:00:35;;;;;;;9.93;4.25;;;5.60;99.90;;;;;;5092994;28;20024;-75
2021/12/08 00:03:03;;;;;;;12.48;5.30;;;5.60;99.90;;;;;;5093593;28;20512;-75
2021/12/08 00:05:30;;;;;;;12.38;5.10;;;5.60;99.90;;;;;;5091639;28;20087;-74
2021/12/08 00:07:55;;;;;;;10.05;4.55;;;5.70;99.90;;;;;;5095511;28;20042;-75
2021/12/08 00:15:31;;;;;;;9.30;4.72;;;5.70;99.90;;;;;;5092287;28;20066;-75
2021/12/08 00:17:59;;;;;;;9.70;4.15;;;5.60;99.90;;;;;;5092302;28;20035;-77
2021/12/08 00:20:28;;;;;;;9.82;4.68;;;5.70;99.90;;;;;;5095159;28;20162;-74
2021/12/08 00:22:53;;;;;;;10.68;4.97;;;5.70;99.90;;;;;;5090510;28;20032;-76
2021/12/08 00:25:22;;;;;;;12.90;4.28;;;5.70;99.90;;;;;;5092776;28;20020;-77
2021/12/08 00:27:47;;;;;;;11.50;5.25;;;5.70;99.90;;;;;;5091330;28;20052;-76
2021/12/08 00:30:14;;;;;;;12.15;5.13;;;5.70;99.90;;;;;;5093651;28;20119;-76
2021/12/08 00:32:40;;;;;;;13.70;6.05;;;5.70;99.90;;;;;;5092342;28;20035;-75
2021/12/08 00:35:07;;;;;;;13.18;5.25;;;5.80;99.90;;;;;;5074181;28;20039;-74
2021/12/08 00:37:33;;;;;;;13.70;5.53;;;5.80;99.90;;;;;;5093555;28;20047;-73
2021/12/08 00:39:59;;;;;;;15.02;6.63;;;5.80;99.90;;;;;;5093944;28;20471;-74
2021/12/08 00:42:25;;;;;;;10.95;5.80;;;5.80;99.90;;;;;;5093171;28;20032;-76
2021/12/08 00:44:51;;;;;;;13.18;5.03;;;5.80;99.90;;;;;;5102140;28;20353;-74
2021/12/08 00:47:18;;;;;;;16.95;6.80;;;5.90;99.90;;;;;;5092431;28;20027;-74
2021/12/08 00:49:46;;;;;;;15.95;7.82;;;5.90;99.90;;;;;;5074770;28;20020;-74
2021/12/08 00:52:13;;;;;;;11.30;4.38;;;6.00;99.90;;;;;;5091439;28;20034;-75
2021/12/08 00:54:40;;;;;;;13.75;5.22;;;6.00;99.90;;;;;;5091573;28;20055;-74
2021/12/08 00:57:06;;;;;;;14.32;6.13;;;6.00;99.90;;;;;;5091552;28;20066;-73
2021/12/08 00:59:32;;;;;;;8.88;4.90;;;6.00;99.90;;;;;;5092936;28;20468;-74
2021/12/08 01:02:02;;;;;;;14.32;7.13;;;6.00;99.90;;;;;;5093137;28;20482;-73
2021/12/08 01:04:29;;;;;;;18.85;7.70;;;6.10;99.90;;;;;;5093703;28;20475;-73
2021/12/08 01:06:55;;;;;;;15.40;6.97;;;6.10;99.90;;;;;;5092988;28;20039;-75
2021/12/08 01:09:24;;;;;;;13.32;6.47;;;6.10;99.90;;;;;;5093301;28;20028;-75
2021/12/08 01:11:50;;;;;;;20.60;8.88;;;6.10;99.90;;;;;;5093002;28;20026;-75
2021/12/08 01:14:16;;;;;;;13.88;6.10;;;6.10;99.90;;;;;;5099303;28;20028;-73
2021/12/08 01:16:42;;;;;;;14.38;6.13;;;6.10;99.90;;;;;;5100582;28;20090;-73
2021/12/08 01:19:08;;;;;;;16.48;7.40;;;6.20;99.90;;;;;;5097353;28;20038;-74
2021/12/08 01:21:34;;;;;;;12.35;5.72;;;6.10;99.90;;;;;;5094756;28;20024;-74
2021/12/08 01:23:59;;;;;;;10.45;5.75;;;6.10;99.90;;;;;;5092459;28;20035;-76
2021/12/08 01:26:26;;;;;;;20.00;9.80;;;6.10;99.90;;;;;;5074872;28;20032;-73
2021/12/08 01:28:55;;;;;;;15.32;6.13;;;6.20;99.90;;;;;;5092773;28;20114;-75
2021/12/08 01:31:22;;;;;;;20.25;9.07;;;6.20;99.90;;;;;;5093166;28;20031;-76
2021/12/08 01:33:48;;;;;;;16.35;7.30;;;6.20;99.90;;;;;;5093516;28;20028;-74
2021/12/08 01:36:14;;;;;;;20.75;8.55;;;6.30;99.90;;;;;;5091411;28;20111;-73
2021/12/08 01:38:39;;;;;;;15.77;7.07;;;6.30;99.90;;;;;;5093022;28;20107;-74
2021/12/08 01:41:06;;;;;;;18.33;7.93;;;6.30;99.90;;;;;;5092719;28;20070;-74
2021/12/08 01:43:42;;;;;;;16.38;7.82;;;6.40;99.90;;;;;;5094101;28;20042;-74
2021/12/08 01:46:13;;;;;;;15.20;7.35;;;6.40;99.90;;;;;;5090451;28;20044;-74
2021/12/08 01:48:42;;;;;;;15.82;8.27;;;6.40;99.90;;;;;;5089471;28;20055;-73
2021/12/08 01:51:17;;;;;;;14.82;6.38;;;6.50;99.90;;;;;;5098391;28;20024;-73
2021/12/08 01:53:47;;;;;;;17.08;8.00;;;6.50;99.90;;;;;;5093017;28;20028;-73
2021/12/08 01:56:13;;;;;;;22.10;8.30;;;6.50;99.90;;;;;;5095699;28;20028;-73
2021/12/08 01:58:39;;;;;;;13.68;6.00;;;6.60;99.90;;;;;;5096083;28;20058;-74
2021/12/08 02:01:12;;;;;;;16.85;6.70;;;6.60;99.90;;;;;;5096826;28;20471;-74
2021/12/08 02:03:40;;;;;;;19.55;8.13;;;6.60;99.90;;;;;;5096634;28;20487;-74
2021/12/08 02:06:10;;;;;;;16.50;5.65;;;6.60;99.90;;;;;;5096672;28;20564;-74
2021/12/08 02:08:36;;;;;;;20.33;7.50;;;6.60;99.90;;;;;;5096605;28;20107;-74
2021/12/08 02:11:04;;;;;;;19.13;7.35;;;6.60;99.90;;;;;;5096875;28;20024;-74
2021/12/08 02:13:36;;;;;;;9.40;3.85;;;6.60;99.90;;;;;;5098644;28;20020;-73
2021/12/08 02:16:04;;;;;;;16.85;5.70;;;6.60;99.90;;;;;;5099917;28;20020;-75
2021/12/08 02:18:30;;;;;;;17.38;7.20;;;6.70;99.90;;;;;;5112547;28;20036;-74
2021/12/08 02:20:58;;;;;;;15.88;6.97;;;6.70;99.90;;;;;;5098386;28;20036;-73
2021/12/08 02:23:24;;;;;;;20.42;8.00;;;6.80;99.90;;;;;;5096375;28;20028;-73
2021/12/08 02:25:49;;;;;;;14.70;6.30;;;6.70;99.90;;;;;;5105748;28;20031;-75
2021/12/08 02:28:15;;;;;;;19.52;7.55;;;6.70;99.90;;;;;;5096336;28;20036;-77
2021/12/08 02:50:04;;;;;;;6.07;2.35;;;6.60;99.90;;;;;;5095427;28;20031;-73
2021/12/08 02:52:29;;;;;;;5.57;1.80;;;6.60;99.90;;;;;;5095832;28;20032;-73
2021/12/08 02:55:05;;;;;;;3.20;1.13;;;6.60;99.90;;;;;;5095949;28;20028;-72
2021/12/08 02:57:36;;;;;;;4.47;1.40;;;6.50;99.90;;;;;;5095981;28;20106;-74
2021/12/08 03:00:08;;;;;;;2.10;0.75;;;6.50;99.90;;;;;;5095384;28;20082;-75
2021/12/08 03:02:34;;;;;;;8.50;1.17;;;6.50;99.90;;;;;;5095008;28;20052;-72
2021/12/08 03:05:00;;;;;;;0.40;0.32;;;6.40;99.90;;;;;;5095878;28;20050;-73
2021/12/08 03:07:26;;;;;;;2.95;0.68;;;6.40;99.90;;;;;;5095035;28;20103;-71
2021/12/08 03:09:52;;;;;;;2.63;0.85;;;6.40;99.90;;;;;;5084001;28;20028;-74
2021/12/08 03:12:28;;;;;;;3.55;0.90;;;6.40;99.90;;;;;;5095591;28;20138;-73
2021/12/08 03:14:54;;;;;;;7.55;0.90;;;6.40;99.90;;;;;;5095455;28;20020;-72
2021/12/08 03:17:20;;;;;;;4.45;0.70;;;6.40;99.90;;;;;;5095313;28;20045;-75
2021/12/08 03:19:46;;;;;;;7.65;1.20;;;6.30;99.90;;;;;;5095108;28;20043;-74
2021/12/08 03:22:12;;;;;;;4.45;0.70;;;6.30;99.90;;;;;;5095443;28;20086;-76
2021/12/08 03:24:43;;;;;;;3.75;0.60;;;6.30;99.90;;;;;;5108663;28;20106;-74
2021/12/08 03:27:18;;;;;;;2.50;0.87;;;6.20;99.90;;;;;;5093847;28;20032;-74
2021/12/08 03:29:53;;;;;;;1.75;0.55;;;6.30;99.90;;;;;;5095125;28;20384;-73
2021/12/08 03:32:29;;;;;;;3.83;0.60;;;6.20;99.90;;;;;;5095273;28;20028;-72
2021/12/08 03:34:55;;;;;;;4.20;0.63;;;6.20;99.90;;;;;;5076636;28;20024;-74
2021/12/08 03:37:36;;;;;;;1.77;0.77;;;6.30;99.90;;;;;;5093513;28;20034;-73
2021/12/08 03:40:17;;;;;;;4.50;0.98;;;6.30;99.90;;;;;;5101080;28;20036;-74
2021/12/08 03:42:54;;;;;;;6.85;1.17;;;6.30;99.90;;;;;;5104297;28;20027;-73
2021/12/08 03:45:45;;;;;;;2.47;1.02;;;6.30;99.90;;;;;;5094930;28;20016;-74
2021/12/08 03:48:24;;;;;;;5.72;1.83;;;6.30;99.90;;;;;;5094406;28;20028;-74
2021/12/08 03:50:51;;;;;;;9.45;2.47;;;6.30;99.90;;;;;;5093247;28;20154;-73
2021/12/08 03:53:17;;;;;;;5.13;2.38;;;6.30;99.90;;;;;;5095207;28;20028;-73
2021/12/08 03:55:45;;;;;;;8.85;2.97;;;6.30;99.90;;;;;;5087181;28;20392;-73
2021/12/08 03:58:11;;;;;;;4.03;1.85;;;6.30;99.90;;;;;;5094831;28;20043;-72
2021/12/08 04:00:38;;;;;;;5.85;2.42;;;6.30;99.90;;;;;;5094566;28;20046;-73
2021/12/08 04:03:07;;;;;;;8.48;3.00;;;6.20;99.90;;;;;;5094839;28;20070;-73
2021/12/08 04:05:45;;;;;;;6.68;2.78;;;6.20;99.90;;;;;;5094732;28;20020;-72
2021/12/08 04:08:18;;;;;;;9.75;2.80;;;6.20;99.90;;;;;;5094810;28;20028;-72
2021/12/08 04:10:50;;;;;;;10.77;3.28;;;6.20;99.90;;;;;;5094752;28;20081;-72
2021/12/08 04:13:22;;;;;;;8.00;2.10;;;6.20;99.90;;;;;;5094682;28;20028;-73
2021/12/08 04:15:48;;;;;;;;;;;6.20;99.90;;;;;;5094625;28;20475;-73
2021/12/08 04:18:14;;;;;;;3.83;1.30;;;6.20;99.90;;;;;;5102113;28;19918;-73
2021/12/08 04:20:46;;;;;;;10.23;2.38;;;6.10;99.90;;;;;;5096878;28;20061;-73
2021/12/08 04:23:14;;;;;;;5.18;1.35;;;6.10;99.90;;;;;;5093849;28;20028;-73
2021/12/08 04:25:46;;;;;;;6.40;1.55;;;6.10;99.90;;;;;;5094129;28;20034;-73
2021/12/08 04:28:16;;;;;;;6.67;2.53;;;6.10;99.90;;;;;;5094014;28;20020;-72
2021/12/08 04:30:57;;;;;;;5.57;1.92;;;6.00;99.90;;;;;;5093513;28;20055;-72
2021/12/08 04:33:23;;;;;;;8.38;1.50;;;6.00;99.90;;;;;;5077030;28;20016;-72
2021/12/08 04:35:51;;;;;;;4.57;1.40;;;6.00;99.90;;;;;;5097661;28;20034;-73
2021/12/08 04:38:25;;;;;;;3.72;1.80;;;5.90;99.90;;;;;;5093541;28;20111;-72
2021/12/08 04:47:17;;;;;;;4.47;2.00;;;5.90;99.90;;;;;;5093735;28;20463;-73
2021/12/08 05:03:02;;;;;;;3.40;1.92;;;5.70;99.90;;;;;;5093313;28;20101;-74
2021/12/08 05:05:37;;;;;;;6.35;2.45;;;5.70;99.90;;;;;;5077981;28;20069;-72
2021/12/08 05:08:15;;;;;;;17.45;3.53;;;5.70;99.90;;;;;;5092675;28;20182;-71
2021/12/08 05:10:41;;;;;;;6.43;2.30;;;5.60;99.90;;;;;;5093333;28;20099;-73
2021/12/08 05:13:11;;;;;;;4.93;2.40;;;5.60;99.90;;;;;;5107734;28;20035;-72
2021/12/08 05:15:53;;;;;;;6.22;2.22;;;5.60;99.90;;;;;;5092551;28;20410;-72
2021/12/08 05:18:20;;;;;;;6.35;2.17;;;5.60;99.90;;;;;;5092991;28;20115;-71
2021/12/08 05:21:03;;;;;;;4.43;2.20;;;5.60;99.90;;;;;;5093219;28;20036;-73
2021/12/08 05:23:40;;;;;;;9.05;2.50;;;5.50;99.90;;;;;;5078400;28;20069;-72
2021/12/08 05:26:13;;;;;;;10.70;2.30;;;5.50;99.90;;;;;;5093028;28;20145;-73
2021/12/08 05:28:41;;;;;;;10.13;2.45;;;5.50;99.90;;;;;;5092095;28;20044;-71
2021/12/08 05:31:17;;;;;;;7.80;2.22;;;5.50;99.90;;;;;;5092872;28;20081;-72
2021/12/08 05:33:44;;;;;;;9.25;2.47;;;5.50;99.90;;;;;;5092955;28;20022;-73
2021/12/08 05:36:12;;;;;;;10.60;2.90;;;5.40;99.90;;;;;;5093039;28;20028;-72
2021/12/08 05:38:39;;;;;;;3.88;2.40;;;5.40;99.90;;;;;;5092975;28;20178;-73
2021/12/08 05:41:09;;;;;;;8.07;2.03;;;5.50;99.90;;;;;;5092864;28;20388;-71
2021/12/08 05:43:35;;;;;;;8.95;2.90;;;5.50;99.90;;;;;;5092797;28;20069;-71
2021/12/08 05:46:03;;;;;;;10.63;2.83;;;5.50;99.90;;;;;;5093098;28;20031;-73
2021/12/08 05:48:31;;;;;;;10.25;2.28;;;5.40;99.90;;;;;;5093111;28;20021;-71
2021/12/08 05:51:14;;;;;;;15.82;3.25;;;5.40;99.90;;;;;;5090535;28;20068;-74
2021/12/08 05:53:44;;;;;;;9.93;2.40;;;5.40;99.90;;;;;;5087135;28;20384;-71
2021/12/08 05:56:10;;;;;;;13.18;2.97;;;5.40;99.90;;;;;;5093302;28;20106;-72
2021/12/08 05:58:37;;;;;;;8.88;2.55;;;5.40;99.90;;;;;;5091861;28;20499;-72
2021/12/08 06:01:28;;;;;;;12.35;3.08;;;5.40;99.90;;;;;;5093182;28;20020;-73
2021/12/08 06:03:54;;;;;;;13.60;3.15;;;5.50;99.90;;;;;;5092458;28;20518;-71
2021/12/08 06:06:21;;;;;;;17.35;2.75;;;5.50;99.90;;;;;;5092219;28;20024;-72
2021/12/08 06:08:48;;;;;;;10.32;2.83;;;5.60;99.90;;;;;;5080518;28;20056;-72
2021/12/08 06:11:15;;;;;;;5.45;2.42;;;5.50;99.90;;;;;;5083522;28;20074;-72
2021/12/08 06:13:42;;;;;;;14.82;2.58;;;5.50;99.90;;;;;;5093251;28;20028;-73
2021/12/08 06:16:10;;;;;;;8.73;2.15;;;5.50;99.90;;;;;;5092439;28;20077;-74
2021/12/08 06:18:39;;;;;;;11.27;2.35;;;5.50;99.90;;;;;;5092881;28;20039;-74
2021/12/08 06:21:16;;;;;;;15.88;2.92;;;5.60;99.90;;;;;;5092688;28;20032;-72
2021/12/08 06:23:43;;;;;;;10.15;2.08;;;5.60;99.90;;;;;;5087783;28;20478;-73
2021/12/08 06:26:10;;;;;;;7.45;1.85;;;5.60;99.90;;;;;;5096060;28;20099;-73
2021/12/08 06:28:36;;;;;;;19.75;2.60;;;5.60;99.90;;;;;;5092317;28;20082;-73
2021/12/08 06:31:04;;;;;;;13.40;3.00;;;5.60;99.90;;;;;;5092188;28;20467;-72
2021/12/08 06:33:31;;;;;;;8.40;2.20;;;5.60;99.90;;;;;;5092739;28;20074;-73
2021/12/08 06:36:10;;;;;;;4.68;1.60;;;5.60;99.90;;;;;;5092530;28;20031;-71
2021/12/08 06:38:37;;;;;;;7.80;1.88;;;5.70;99.90;;;;;;5092448;28;20043;-71
2021/12/08 06:41:08;;;;;;;11.07;2.42;;;5.70;99.90;;;;;;5093710;28;20043;-71
2021/12/08 06:43:41;;;;;;;10.40;2.50;;;5.70;99.90;;;;;;5094817;28;20063;-72
2021/12/08 06:46:07;;;;;;;5.63;1.75;;;5.70;99.90;;;;;;5095071;28;20032;-71
2021/12/08 06:48:38;;;;;;;14.98;2.13;;;5.70;99.90;;;;;;5094085;28;20118;-71
2021/12/08 06:51:09;;;;;;;9.55;2.33;;;5.60;99.90;;;;;;5094426;28;20035;-71
2021/12/08 06:53:36;;;;;;;6.97;2.20;;;5.60;99.90;;;;;;5095329;28;20111;-74
2021/12/08 06:56:07;;;;;;;8.02;1.90;;;5.60;99.90;;;;;;5095926;28;20024;-72
2021/12/08 06:58:37;;;;;;;6.85;1.80;;;5.60;99.90;;;;;;5095957;28;20028;-72
2021/12/08 07:01:21;;;;;;;8.35;1.90;;;5.50;99.90;;;;;;5094547;28;20779;-73
2021/12/08 07:04:27;;;;;;;10.35;2.05;;;5.50;99.90;;;;;;5095017;28;20495;-72
2021/12/08 07:07:02;;;;;;;10.07;2.53;;;5.40;99.90;;;;;;5095128;28;20039;-72
2021/12/08 07:09:37;;;;;;;9.32;2.08;;;5.50;99.90;;;;;;5095589;28;20024;-72
2021/12/08 07:12:30;;;;;;;7.70;1.50;;;5.40;99.90;;;;;;5094853;28;20356;-72
2021/12/08 07:15:09;;;;;;;5.82;1.77;;;5.40;99.90;;;;;;5082131;28;20028;-73
2021/12/08 07:17:36;;;;;;;8.00;2.22;;;5.30;99.90;;;;;;5095621;28;20035;-73
2021/12/08 07:20:17;;;;;;;8.43;1.98;;;5.30;99.90;;;;;;5086474;28;20029;-72
2021/12/08 07:22:47;;;;;;;7.68;2.45;;;5.30;99.90;;;;;;5094720;28;20016;-71
2021/12/08 07:25:17;;;;;;;7.10;1.98;;;5.30;99.90;;;;;;5078306;28;20016;-72
2021/12/08 07:27:42;;;;;;;13.68;2.58;;;5.30;99.90;;;;;;5095319;28;20059;-71
2021/12/08 07:30:19;;;;;;;8.30;1.95;;;5.20;99.90;;;;;;5094955;28;20064;-71
2021/12/08 07:32:45;;;;;;;11.38;2.78;;;5.20;99.90;;;;;;5076894;28;20027;-74
2021/12/08 07:35:21;;;;;;;7.10;1.70;;;5.20;99.90;;;;;;5094195;28;20088;-74
2021/12/08 07:37:47;;;;;;;5.25;1.80;;;5.20;99.90;;;;;;5093901;28;20353;-72
2021/12/08 07:40:16;;;;;;;10.50;2.67;;;5.20;99.90;;;;;;5093489;28;20051;-72
2021/12/08 07:42:47;;;;;;;10.02;2.30;;;5.20;99.90;;;;;;5093137;28;20047;-74
2021/12/08 07:45:18;;;;;;;6.88;2.25;;;5.20;99.90;;;;;;5092587;28;20149;-73
2021/12/08 07:47:45;;;;;;;5.65;2.00;;;5.10;99.90;;;;;;5094974;28;20028;-72
2021/12/08 07:50:18;;;;;;;12.88;2.40;;;5.10;99.90;;;;;;5074913;28;20040;-72
2021/12/08 07:52:49;;;;;;;8.45;1.83;;;5.10;99.90;;;;;;5093257;28;20506;-74
2021/12/08 07:55:19;;;;;;;8.45;1.98;;;5.10;99.90;;;;;;5094407;28;20125;-73
2021/12/08 07:57:46;;;;;;;8.15;2.50;;;5.20;99.90;;;;;;5095933;28;20020;-71
2021/12/08 08:00:28;;;;;;;10.57;2.90;;;5.10;99.90;;;;;;5092544;28;20475;-73
2021/12/08 08:02:54;;;;;;;13.18;3.22;;;5.20;99.90;;;;;;5092746;28;20044;-74
2021/12/08 08:05:27;;;;;;;10.70;2.35;;;5.10;99.90;;;;;;5094055;28;20407;-73
2021/12/08 08:07:53;;;;;;;10.20;2.80;;;5.20;99.90;;;;;;5094055;28;20020;-73
2021/12/08 08:10:27;;;;;;;13.73;3.50;;;5.20;99.90;;;;;;5093405;28;20469;-73
2021/12/08 08:13:00;;;;;;;10.80;2.50;;;5.10;99.90;;;;;;5093637;28;20494;-73
2021/12/08 08:15:28;;;;;;;8.10;2.45;;;5.10;99.90;;;;;;5094293;28;20483;-72
2021/12/08 08:17:55;;;;;;;6.05;1.98;;;5.10;99.90;;;;;;5093680;28;20020;-72
2021/12/08 08:20:29;;;;;;;12.27;2.83;;;5.10;99.90;;;;;;5093960;28;20028;-73
2021/12/08 08:22:56;;;;;;;14.18;4.13;;;5.20;99.90;;;;;;5091207;28;20050;-73
2021/12/08 08:25:27;;;;;;;11.68;2.72;;;5.10;99.90;;;;;;5093354;28;20480;-71
2021/12/08 08:27:53;;;;;;;7.82;2.80;;;5.20;99.90;;;;;;5093711;28;20061;-72
2021/12/08 08:30:22;;;;;;;9.02;2.53;;;5.20;99.90;;;;;;5093718;28;20023;-72
2021/12/08 08:32:51;;;;;;;12.07;2.47;;;5.20;99.90;;;;;;5093223;28;20035;-71
2021/12/08 08:35:29;;;;;;;8.85;2.83;;;5.20;99.90;;;;;;5093041;28;20035;-71
2021/12/08 08:37:56;;;;;;;10.50;2.92;;;5.30;99.90;;;;;;5092913;28;20020;-71
2021/12/08 08:40:36;;;;;;;13.50;2.60;;;5.30;99.90;;;;;;5094220;28;20060;-71
2021/12/08 08:43:03;;;;;;;11.75;3.28;;;5.40;99.90;;;;;;5093500;28;20062;-72
2021/12/08 08:45:52;;;;;;;11.98;3.00;;;5.40;99.90;;;;;;5093743;28;20498;-72
2021/12/08 08:48:28;;;;;;;9.38;2.72;;;5.40;99.90;;;;;;5093980;28;20031;-72
2021/12/08 08:51:07;;;;;;;9.13;2.17;;;5.50;99.90;;;;;;5092540;28;20371;-71
2021/12/08 08:53:35;;;;;;;7.05;2.60;;;5.50;99.90;;;;;;5092040;28;20365;-72
2021/12/08 08:56:09;;;;;;;11.88;2.88;;;5.50;99.90;;;;;;5091425;28;20020;-72
2021/12/08 08:58:49;;;;;;;11.50;2.25;;;5.60;99.90;;;;;;5092339;28;20035;-72
2021/12/08 09:01:31;;;;;;;16.25;2.88;;;5.60;99.90;;;;;;5092985;28;20026;-72
2021/12/08 09:04:05;;;;;;;;;;;5.70;99.90;;;;;;5092196;28;20052;-72
2021/12/08 09:06:39;;;;;;;10.57;2.45;;;5.70;99.90;;;;;;5100091;28;19908;-71
2021/12/08 09:09:15;;;;;;;11.63;3.25;;;5.80;99.90;;;;;;5097208;28;20107;-72
2021/12/08 09:11:54;;;;;;;12.63;2.95;;;5.80;99.90;;;;;;5104947;28;20024;-72
2021/12/08 09:14:27;;;;;;;7.45;2.42;;;5.90;99.90;;;;;;5093418;28;20137;-72
2021/12/08 09:17:01;;;;;;;7.45;2.33;;;5.90;99.90;;;;;;5093337;28;20024;-72
2021/12/08 09:19:35;;;;;;;11.70;2.28;;;6.00;99.90;;;;;;5107453;28;20372;-72
2021/12/08 09:22:04;;;;;;;9.52;2.35;;;6.00;99.90;;;;;;5093133;28;20099;-74
2021/12/08 09:24:45;;;;;;;12.40;3.78;;;6.10;99.90;;;;;;5093371;28;20016;-74
2021/12/08 09:27:14;;;;;;;9.25;1.85;;;6.10;99.90;;;;;;5093131;28;20024;-74
2021/12/08 09:29:50;;;;;;;10.45;2.28;;;6.20;99.90;;;;;;5092354;28;20028;-74
2021/12/08 09:32:21;;;;;;;7.30;2.38;;;6.20;99.90;;;;;;5091579;28;20024;-73
2021/12/08 09:34:57;;;;;;;12.05;2.75;;;6.30;99.90;;;;;;5093095;28;20483;-71
2021/12/08 09:37:40;;;;;;;9.77;2.75;;;6.40;99.90;;;;;;5076598;28;20383;-72
2021/12/08 09:40:08;;;;;;;10.45;2.83;;;6.50;99.90;;;;;;5092780;28;20039;-73
2021/12/08 09:42:41;;;;;;;7.22;2.63;;;6.60;99.90;;;;;;5093474;28;20037;-72
2021/12/08 09:45:28;;;;;;;4.35;1.90;;;6.70;99.90;;;;;;5091344;28;20039;-72
2021/12/08 09:47:55;;;;;;;11.65;2.97;;;6.70;99.90;;;;;;5079009;28;20023;-73
2021/12/08 09:50:20;;;;;;;9.50;2.53;;;6.70;99.90;;;;;;5092544;28;20100;-72
2021/12/08 09:52:47;;;;;;;10.18;3.00;;;6.80;99.90;;;;;;5092476;28;20123;-72
2021/12/08 09:55:16;;;;;;;16.50;3.70;;;6.80;99.90;;;;;;5092321;28;20036;-71
2021/12/08 09:57:42;;;;;;;7.82;2.13;;;6.90;99.90;;;;;;5092373;28;20095;-73
2021/12/08 10:00:17;;;;;;;7.13;2.88;;;6.90;99.90;;;;;;5092326;28;20479;-73
2021/12/08 10:02:43;;;;;;;11.88;3.35;;;6.90;99.90;;;;;;5092877;28;20052;-74
2021/12/08 10:05:16;;;;;;;6.57;2.80;;;6.80;99.90;;;;;;5092308;28;20333;-73
2021/12/08 10:07:43;;;;;;;9.30;3.10;;;6.80;99.90;;;;;;5093324;28;20099;-72
2021/12/08 10:10:13;;;;;;;11.60;3.15;;;6.80;99.90;;;;;;5093094;28;20024;-71
2021/12/08 10:12:39;;;;;;;8.23;3.22;;;6.80;99.90;;;;;;5092420;28;20032;-71
2021/12/08 10:15:09;;;;;;;10.63;3.00;;;6.80;99.90;;;;;;5093514;28;20028;-74
2021/12/08 10:17:36;;;;;;;15.65;4.00;;;6.80;99.90;;;;;;5097416;28;20411;-72
2021/12/08 10:20:13;;;;;;;7.45;3.55;;;6.90;99.90;;;;;;5104871;28;20085;-72
2021/12/08 10:22:41;;;;;;;7.93;2.72;;;6.90;99.90;;;;;;5094837;28;20059;-72
2021/12/08 10:25:12;;;;;;;4.50;2.47;;;6.90;99.90;;;;;;5096336;28;20020;-72
2021/12/08 10:28:06;;;;;;;13.82;4.28;;;6.90;99.90;;;;;;5095015;28;20108;-71
2021/12/08 10:30:37;;;;;;;5.97;3.03;;;6.90;99.90;;;;;;5081685;28;20047;-71
2021/12/08 10:33:11;;;;;;;7.57;3.78;;;6.90;99.90;;;;;;5105157;28;20031;-71
2021/12/08 10:35:49;;;;;;;7.43;3.35;;;6.90;99.90;;;;;;5106102;28;20032;-72
2021/12/08 10:38:16;;;;;;;9.80;3.80;;;7.00;99.90;;;;;;5096230;28;20125;-71
2021/12/08 10:41:04;;;;;;;8.35;3.25;;;7.00;99.90;;;;;;5095564;28;20524;-73
2021/12/08 10:43:30;;;;;;;8.93;2.75;;;7.00;99.90;;;;;;5095872;28;20115;-71
2021/12/08 10:46:05;;;;;;;10.07;3.40;;;7.10;99.90;;;;;;5095971;28;20430;-73
2021/12/08 10:48:38;;;;;;;6.95;3.08;;;7.10;99.90;;;;;;5095021;28;20020;-73
2021/12/08 10:54:26;;;;;;;12.88;4.70;;;7.00;99.90;;;;;;5095700;28;20035;-71
2021/12/08 10:56:56;;;;;;;6.20;2.90;;;7.00;99.90;;;;;;5093569;28;20024;-71
2021/12/08 10:59:26;;;;;;;5.88;2.65;;;7.10;99.90;;;;;;5095730;28;20085;-71
2021/12/08 11:01:53;;;;;;;8.02;3.47;;;7.10;99.90;;;;;;5095876;28;20024;-71
2021/12/08 11:04:31;;;;;;;9.07;4.32;;;7.10;99.90;;;;;;5095592;28;20058;-71
2021/12/08 11:07:08;;;;;;;13.40;4.05;;;7.10;99.90;;;;;;5095218;28;20119;-72
2021/12/08 11:09:42;;;;;;;12.20;4.03;;;7.10;99.90;;;;;;5095569;28;20020;-72
2021/12/08 11:12:08;;;;;;;4.85;2.88;;;7.30;99.90;;;;;;5104318;28;20423;-71
2021/12/08 11:14:52;;;;;;;9.85;3.55;;;7.40;99.90;;;;;;5095349;28;20028;-72
2021/12/08 11:17:29;;;;;;;9.07;3.55;;;7.50;99.90;;;;;;5095150;28;20024;-72
2021/12/08 11:20:19;;;;;;;9.50;4.00;;;7.50;99.90;;;;;;5095212;28;20036;-71
2021/12/08 11:23:02;;;;;;;9.70;3.67;;;7.50;99.90;;;;;;5092676;28;20060;-72
2021/12/08 11:25:35;;;;;;;8.18;3.50;;;7.70;99.90;;;;;;5095493;28;20032;-71
2021/12/08 11:28:29;;;;;;;6.85;3.55;;;7.90;99.90;;;;;;5092598;28;20024;-71
2021/12/08 11:31:05;;;;;;;8.55;3.35;;;8.00;99.90;;;;;;5095390;28;20028;-71
2021/12/08 11:33:31;;;;;;;9.93;3.15;;;8.00;99.90;;;;;;5095415;28;20020;-71
2021/12/08 11:36:12;;;;;;;8.30;3.03;;;8.10;99.90;;;;;;5096308;28;20063;-71
2021/12/08 11:38:40;;;;;;;4.72;2.42;;;8.20;99.90;;;;;;5092321;28;20056;-71
2021/12/08 11:41:34;;;;;;;5.45;2.80;;;8.30;99.90;;;;;;5094777;28;20016;-71
2021/12/08 11:44:01;;;;;;;11.90;3.05;;;8.40;99.90;;;;;;5093711;28;20379;-72
2021/12/08 11:46:26;;;;;;;11.40;3.58;;;8.50;99.90;;;;;;5095894;28;20467;-72
2021/12/08 11:49:06;;;;;;;8.73;3.42;;;8.60;99.90;;;;;;5095086;28;20024;-72
2021/12/08 11:51:47;;;;;;;6.18;3.08;;;8.60;99.90;;;;;;5095152;28;20463;-72
2021/12/08 11:54:41;;;;;;;6.65;2.47;;;8.70;99.90;;;;;;5095212;28;20020;-72
2021/12/08 11:57:12;;;;;;;7.88;2.28;;;8.80;99.90;;;;;;5093348;28;20582;-73
2021/12/08 12:00:07;;;;;;;9.50;2.60;;;8.90;99.90;;;;;;5093685;28;20043;-72
2021/12/08 12:02:36;;;;;;;7.22;2.50;;;8.90;99.90;;;;;;5084859;28;20036;-73
2021/12/08 12:05:09;;;;;;;5.93;2.53;;;8.80;99.90;;;;;;5094318;28;20434;-73
2021/12/08 12:07:36;;;;;;;7.53;2.97;;;8.80;99.90;;;;;;5093888;28;20047;-73
2021/12/08 12:10:02;;;;;;;11.10;2.88;;;8.90;99.90;;;;;;5093629;28;20349;-72
2021/12/08 12:12:28;;;;;;;9.75;3.13;;;9.00;99.90;;;;;;5094236;28;20085;-72
2021/12/08 12:14:54;;;;;;;10.05;4.40;;;9.20;99.90;;;;;;5094088;28;20107;-71
2021/12/08 12:17:22;;;;;;;10.77;3.60;;;9.40;99.90;;;;;;5093973;28;20065;-73
2021/12/08 12:20:00;;;;;;;7.30;2.67;;;9.40;99.90;;;;;;5093158;28;20032;-73
2021/12/08 12:22:27;;;;;;;7.88;2.78;;;9.40;99.90;;;;;;5092500;28;20024;-71
2021/12/08 12:25:20;;;;;;;5.60;2.88;;;9.40;99.90;;;;;;5092798;28;20021;-74
2021/12/08 12:28:13;;;;;;;10.68;3.03;;;9.30;99.90;;;;;;5077907;28;20047;-72
2021/12/08 12:31:19;;;;;;;5.40;2.67;;;9.20;99.90;;;;;;5092427;28;20028;-72
2021/12/08 12:33:48;;;;;;;7.60;2.45;;;9.30;99.90;;;;;;5080667;28;20071;-72
2021/12/08 12:36:24;;;;;;;6.28;2.35;;;9.20;99.90;;;;;;5093457;28;20541;-72
2021/12/08 12:38:50;;;;;;;7.70;2.28;;;9.10;99.90;;;;;;5093508;28;20038;-72
2021/12/08 12:41:29;;;;;;;9.48;2.50;;;9.10;99.90;;;;;;5093734;28;20478;-72
2021/12/08 12:44:14;;;;;;;5.07;1.90;;;9.00;99.90;;;;;;5092274;28;20020;-72
2021/12/08 12:47:03;;;;;;;5.70;2.00;;;9.00;99.90;;;;;;5093682;28;20032;-72
2021/12/08 12:49:30;;;;;;;5.90;2.28;;;9.10;99.90;;;;;;5084279;28;20392;-72
2021/12/08 12:51:58;;;;;;;10.32;2.80;;;9.20;99.90;;;;;;5093804;28;20024;-72
2021/12/08 12:54:25;;;;;;;3.75;2.13;;;9.30;99.90;;;;;;5089828;28;20023;-72
2021/12/08 12:56:53;;;;;;;9.98;3.33;;;9.40;99.90;;;;;;5093234;28;20028;-72
2021/12/08 12:59:21;;;;;;;8.75;3.45;;;9.40;99.90;;;;;;5074707;28;20035;-73
2021/12/08 13:02:07;;;;;;;7.82;2.70;;;9.30;99.90;;;;;;5094590;28;20426;-73
2021/12/08 13:04:36;;;;;;;11.73;3.67;;;9.20;99.90;;;;;;5094052;28;20040;-73
2021/12/08 13:07:10;;;;;;;8.38;2.17;;;9.10;99.90;;;;;;5093669;28;20024;-73
2021/12/08 13:09:41;;;;;;;8.45;3.38;;;9.00;99.90;;;;;;5092471;28;20031;-73
2021/12/08 13:12:16;;;;;;;4.67;1.93;;;8.90;99.90;;;;;;5089781;28;20589;-74
2021/12/08 13:14:43;;;;;;;5.32;2.60;;;8.80;99.90;;;;;;5089472;28;20027;-76
2021/12/08 13:17:21;;;;;;;7.63;2.35;;;8.70;99.90;;;;;;5094806;28;20024;-75
2021/12/08 13:19:51;;;;;;;10.52;3.28;;;8.60;99.90;;;;;;5097021;28;20036;-72
2021/12/08 13:22:52;;;;;;;8.48;2.78;;;8.60;99.90;;;;;;5095576;28;20152;-73
2021/12/08 13:25:23;;;;;;;7.30;3.17;;;8.60;99.90;;;;;;5085778;28;20031;-73
2021/12/08 13:27:53;;;;;;;7.97;2.97;;;8.60;99.90;;;;;;5092270;28;20380;-73
2021/12/08 13:30:26;;;;;;;11.57;4.22;;;8.50;99.90;;;;;;5095854;28;20405;-70
2021/12/08 13:32:57;;;;;;;8.35;3.30;;;8.50;99.90;;;;;;5092453;28;20468;-74
2021/12/08 13:35:37;;;;;;;11.57;2.95;;;8.40;99.90;;;;;;5093652;28;20052;-71
2021/12/08 13:38:04;;;;;;;6.88;2.85;;;8.30;99.90;;;;;;5093512;28;20032;-71
2021/12/08 13:40:44;;;;;;;6.47;2.83;;;8.30;99.90;;;;;;5094464;28;20050;-71
2021/12/08 13:43:11;;;;;;;15.80;3.50;;;8.30;99.90;;;;;;5094620;28;20024;-73
2021/12/08 13:45:44;;;;;;;12.07;4.20;;;8.20;99.90;;;;;;5100150;28;20383;-72
2021/12/08 13:48:12;;;;;;;8.00;2.75;;;8.10;99.90;;;;;;5092429;28;20452;-75
2021/12/08 13:50:43;;;;;;;11.55;3.55;;;8.10;99.90;;;;;;5094036;28;20020;-76
2021/12/08 13:53:16;;;;;;;6.60;2.55;;;8.00;99.90;;;;;;5076983;28;20048;-72
2021/12/08 13:55:58;;;;;;;8.77;3.10;;;7.90;99.90;;;;;;5077990;28;20048;-73
2021/12/08 13:58:24;;;;;;;13.52;3.88;;;7.90;99.90;;;;;;5077692;28;20023;-73
2021/12/08 14:00:55;;;;;;;12.98;4.35;;;7.80;99.90;;;;;;5080685;28;20020;-73
2021/12/08 14:03:23;;;;;;;8.57;3.20;;;7.80;99.90;;;;;;5097308;28;20137;-72